Terminal Aerodrome Forecast
Issued by NWS Pittsburgh, PA

Current Version | Previous Version | Text Only | Print | Product List | Glossary Off
Versions: 1 2 3 4 5 6 7 8 9 10 11 12 13 14 15 16 17 18 19 20 21 22 23 24 25 26 27 28

512
FTUS41 KPBZ 092338
TAFPIT
TAF
KPIT 092338Z 1000/1106 26009KT P6SM OVC020
     FM101400 25008KT P6SM BKN035
     FM102100 25006KT P6SM SCT050
     FM110200 21003KT P6SM BKN090=

USA.gov is the U.S. government's official web portal to all federal, state and local government web resources and services.